Terminal Aerodrome Forecast
Issued by NWS Newport/Morehead City, NC

Home | Current Version | Previous Version | Text Only | Print | Product List | Glossary On
Versions: 1 2 3 4 5 6 7 8 9 10 11 12 13 14 15
052
FTUS42 KMHX 272331
TAFEWN
TAF
KEWN 272331Z 2800/2824 14005KT P6SM BKN120
     FM280200 VRB04KT P6SM BKN110
     FM281500 17010KT P6SM BKN090
     FM281800 18010KT P6SM BKN150=

USA.gov is the U.S. government's official web portal to all federal, state and local government web resources and services.